West Laurens, New York
Current Conditions -  °F | °C
As of 10:53 PM on Tuesday 21 Oct 2014 (Local Time) from KBGM Reporting Station
Overcast Overcast  
Wind Chill: 47°   Ceiling: 500
Heat Index: 49°   Visibility: 9mi
Dew Point: 48°   Wind: 6mph
Humidity: 97%   Direction: 10°N
Pressure: 29.97"   Gusts: NA
Location:  42.5392°N, 75.1508°W
Report Text: KBGM 220253Z 01005KT 9SM OVC005 09/09 A2997 RMK AO2 SLP153 T00940089 53017
Loading
Personal Weather Stations






























Interactive Weather Map
Tropical Storm Tracking
New forecast layout! Learn more

10-Day Weather Forecast

Advertisements
Track Severe Weather on mobile